sensor_id;sensor_type;location;lat;lon;timestamp;P1;P2;P0
70554;PMS5003;58104;52.744;15.242;2023-03-19T00:00:28;10;9;
70554;PMS5003;58104;52.744;15.242;2023-03-19T00:02:53;10;10;
70554;PMS5003;58104;52.744;15.242;2023-03-19T00:05:19;10;8;
70554;PMS5003;58104;52.744;15.242;2023-03-19T00:07:44;12;9;
70554;PMS5003;58104;52.744;15.242;2023-03-19T00:10:10;12;9;
70554;PMS5003;58104;52.744;15.242;2023-03-19T00:12:35;14;12;
70554;PMS5003;58104;52.744;15.242;2023-03-19T00:15:00;16;12;
70554;PMS5003;58104;52.744;15.242;2023-03-19T00:17:25;9;9;
70554;PMS5003;58104;52.744;15.242;2023-03-19T00:19:51;12;11;
70554;PMS5003;58104;52.744;15.242;2023-03-19T00:22:16;11;11;
70554;PMS5003;58104;52.744;15.242;2023-03-19T00:24:42;14;10;
70554;PMS5003;58104;52.744;15.242;2023-03-19T00:27:07;14;11;
70554;PMS5003;58104;52.744;15.242;2023-03-19T00:29:33;11;11;
70554;PMS5003;58104;52.744;15.242;2023-03-19T00:31:58;12;11;
70554;PMS5003;58104;52.744;15.242;2023-03-19T00:34:23;16;13;
70554;PMS5003;58104;52.744;15.242;2023-03-19T00:36:48;20;16;
70554;PMS5003;58104;52.744;15.242;2023-03-19T00:39:14;12;11;
70554;PMS5003;58104;52.744;15.242;2023-03-19T00:41:39;15;13;
70554;PMS5003;58104;52.744;15.242;2023-03-19T00:44:05;12;12;
70554;PMS5003;58104;52.744;15.242;2023-03-19T00:46:30;16;14;
70554;PMS5003;58104;52.744;15.242;2023-03-19T00:48:56;13;12;
70554;PMS5003;58104;52.744;15.242;2023-03-19T00:51:21;12;11;
70554;PMS5003;58104;52.744;15.242;2023-03-19T00:53:47;16;16;
70554;PMS5003;58104;52.744;15.242;2023-03-19T00:56:13;16;14;
70554;PMS5003;58104;52.744;15.242;2023-03-19T00:58:38;15;14;
70554;PMS5003;58104;52.744;15.242;2023-03-19T01:01:03;14;14;
70554;PMS5003;58104;52.744;15.242;2023-03-19T01:03:29;17;14;
70554;PMS5003;58104;52.744;15.242;2023-03-19T01:05:54;15;15;
70554;PMS5003;58104;52.744;15.242;2023-03-19T01:08:19;13;12;
70554;PMS5003;58104;52.744;15.242;2023-03-19T01:10:45;20;17;
70554;PMS5003;58104;52.744;15.242;2023-03-19T01:13:10;18;16;
70554;PMS5003;58104;52.744;15.242;2023-03-19T01:15:35;16;14;
70554;PMS5003;58104;52.744;15.242;2023-03-19T01:18:00;18;15;
70554;PMS5003;58104;52.744;15.242;2023-03-19T01:20:26;17;16;
70554;PMS5003;58104;52.744;15.242;2023-03-19T01:22:51;16;15;
70554;PMS5003;58104;52.744;15.242;2023-03-19T01:25:17;20;17;
70554;PMS5003;58104;52.744;15.242;2023-03-19T01:27:42;16;16;
70554;PMS5003;58104;52.744;15.242;2023-03-19T01:30:08;17;15;
70554;PMS5003;58104;52.744;15.242;2023-03-19T01:32:32;17;17;
70554;PMS5003;58104;52.744;15.242;2023-03-19T01:34:58;17;14;
70554;PMS5003;58104;52.744;15.242;2023-03-19T01:37:23;16;16;
70554;PMS5003;58104;52.744;15.242;2023-03-19T01:39:49;18;16;
70554;PMS5003;58104;52.744;15.242;2023-03-19T01:42:15;19;16;
70554;PMS5003;58104;52.744;15.242;2023-03-19T01:44:40;20;17;
70554;PMS5003;58104;52.744;15.242;2023-03-19T01:47:05;22;18;
70554;PMS5003;58104;52.744;15.242;2023-03-19T01:49:30;20;16;
70554;PMS5003;58104;52.744;15.242;2023-03-19T01:51:56;27;26;
70554;PMS5003;58104;52.744;15.242;2023-03-19T01:54:22;19;17;
70554;PMS5003;58104;52.744;15.242;2023-03-19T01:56:48;18;15;
70554;PMS5003;58104;52.744;15.242;2023-03-19T01:59:13;18;18;
70554;PMS5003;58104;52.744;15.242;2023-03-19T02:01:38;17;15;
70554;PMS5003;58104;52.744;15.242;2023-03-19T02:04:03;20;18;
70554;PMS5003;58104;52.744;15.242;2023-03-19T02:06:29;24;18;
70554;PMS5003;58104;52.744;15.242;2023-03-19T02:08:54;23;20;
70554;PMS5003;58104;52.744;15.242;2023-03-19T02:11:20;19;18;
70554;PMS5003;58104;52.744;15.242;2023-03-19T02:13:45;20;19;
70554;PMS5003;58104;52.744;15.242;2023-03-19T02:16:10;19;17;
70554;PMS5003;58104;52.744;15.242;2023-03-19T02:18:36;17;17;
70554;PMS5003;58104;52.744;15.242;2023-03-19T02:21:02;19;19;
70554;PMS5003;58104;52.744;15.242;2023-03-19T02:23:29;19;18;
70554;PMS5003;58104;52.744;15.242;2023-03-19T02:25:56;23;20;
70554;PMS5003;58104;52.744;15.242;2023-03-19T02:28:18;22;21;
70554;PMS5003;58104;52.744;15.242;2023-03-19T02:30:43;21;21;
70554;PMS5003;58104;52.744;15.242;2023-03-19T02:33:08;24;24;
70554;PMS5003;58104;52.744;15.242;2023-03-19T02:35:35;26;24;
70554;PMS5003;58104;52.744;15.242;2023-03-19T02:38:00;21;21;
70554;PMS5003;58104;52.744;15.242;2023-03-19T02:40:28;25;23;
70554;PMS5003;58104;52.744;15.242;2023-03-19T02:42:51;20;20;
70554;PMS5003;58104;52.744;15.242;2023-03-19T02:45:17;20;20;
70554;PMS5003;58104;52.744;15.242;2023-03-19T02:47:42;23;20;
70554;PMS5003;58104;52.744;15.242;2023-03-19T02:50:08;19;18;
70554;PMS5003;58104;52.744;15.242;2023-03-19T02:52:33;27;24;
70554;PMS5003;58104;52.744;15.242;2023-03-19T02:54:59;30;23;
70554;PMS5003;58104;52.744;15.242;2023-03-19T02:57:25;27;24;
70554;PMS5003;58104;52.744;15.242;2023-03-19T02:59:50;23;20;
70554;PMS5003;58104;52.744;15.242;2023-03-19T03:02:15;26;22;
70554;PMS5003;58104;52.744;15.242;2023-03-19T03:04:41;24;24;
70554;PMS5003;58104;52.744;15.242;2023-03-19T03:07:06;22;20;
70554;PMS5003;58104;52.744;15.242;2023-03-19T03:09:32;22;22;
70554;PMS5003;58104;52.744;15.242;2023-03-19T03:11:58;29;24;
70554;PMS5003;58104;52.744;15.242;2023-03-19T03:14:23;22;21;
70554;PMS5003;58104;52.744;15.242;2023-03-19T03:16:49;25;22;
70554;PMS5003;58104;52.744;15.242;2023-03-19T03:19:14;25;23;
70554;PMS5003;58104;52.744;15.242;2023-03-19T03:21:39;24;21;
70554;PMS5003;58104;52.744;15.242;2023-03-19T03:24:05;26;24;
70554;PMS5003;58104;52.744;15.242;2023-03-19T03:26:30;30;25;
70554;PMS5003;58104;52.744;15.242;2023-03-19T03:28:55;34;31;
70554;PMS5003;58104;52.744;15.242;2023-03-19T03:31:21;26;26;
70554;PMS5003;58104;52.744;15.242;2023-03-19T03:33:46;28;26;
70554;PMS5003;58104;52.744;15.242;2023-03-19T03:36:12;27;25;
70554;PMS5003;58104;52.744;15.242;2023-03-19T03:38:37;27;24;
70554;PMS5003;58104;52.744;15.242;2023-03-19T03:41:03;26;20;
70554;PMS5003;58104;52.744;15.242;2023-03-19T03:43:28;23;22;
70554;PMS5003;58104;52.744;15.242;2023-03-19T03:45:53;28;26;
70554;PMS5003;58104;52.744;15.242;2023-03-19T03:48:18;29;27;
70554;PMS5003;58104;52.744;15.242;2023-03-19T03:50:43;25;22;
70554;PMS5003;58104;52.744;15.242;2023-03-19T03:53:09;25;24;
70554;PMS5003;58104;52.744;15.242;2023-03-19T03:55:34;27;26;
70554;PMS5003;58104;52.744;15.242;2023-03-19T03:58:00;25;23;
70554;PMS5003;58104;52.744;15.242;2023-03-19T04:00:25;21;21;
70554;PMS5003;58104;52.744;15.242;2023-03-19T04:02:50;22;22;
70554;PMS5003;58104;52.744;15.242;2023-03-19T04:05:16;25;24;
70554;PMS5003;58104;52.744;15.242;2023-03-19T04:07:42;25;24;
70554;PMS5003;58104;52.744;15.242;2023-03-19T04:10:08;23;21;
70554;PMS5003;58104;52.744;15.242;2023-03-19T04:12:33;26;26;
70554;PMS5003;58104;52.744;15.242;2023-03-19T04:14:59;24;24;
70554;PMS5003;58104;52.744;15.242;2023-03-19T04:17:24;23;23;
70554;PMS5003;58104;52.744;15.242;2023-03-19T04:19:50;34;27;
70554;PMS5003;58104;52.744;15.242;2023-03-19T04:22:15;28;24;
70554;PMS5003;58104;52.744;15.242;2023-03-19T04:24:40;29;26;
70554;PMS5003;58104;52.744;15.242;2023-03-19T04:27:06;29;25;
70554;PMS5003;58104;52.744;15.242;2023-03-19T04:29:32;28;28;
70554;PMS5003;58104;52.744;15.242;2023-03-19T04:31:57;29;27;
70554;PMS5003;58104;52.744;15.242;2023-03-19T04:34:22;24;23;
70554;PMS5003;58104;52.744;15.242;2023-03-19T04:36:47;27;27;
70554;PMS5003;58104;52.744;15.242;2023-03-19T04:39:13;27;26;
70554;PMS5003;58104;52.744;15.242;2023-03-19T04:41:39;32;30;
70554;PMS5003;58104;52.744;15.242;2023-03-19T04:44:04;23;23;
70554;PMS5003;58104;52.744;15.242;2023-03-19T04:46:29;27;26;
70554;PMS5003;58104;52.744;15.242;2023-03-19T04:48:54;26;25;
70554;PMS5003;58104;52.744;15.242;2023-03-19T04:51:20;33;30;
70554;PMS5003;58104;52.744;15.242;2023-03-19T04:53:45;28;26;
70554;PMS5003;58104;52.744;15.242;2023-03-19T04:56:11;33;29;
70554;PMS5003;58104;52.744;15.242;2023-03-19T04:58:36;24;24;
70554;PMS5003;58104;52.744;15.242;2023-03-19T05:01:02;28;28;
70554;PMS5003;58104;52.744;15.242;2023-03-19T05:03:28;24;21;
70554;PMS5003;58104;52.744;15.242;2023-03-19T05:05:53;26;24;
70554;PMS5003;58104;52.744;15.242;2023-03-19T05:08:19;28;26;
70554;PMS5003;58104;52.744;15.242;2023-03-19T05:10:44;25;25;
70554;PMS5003;58104;52.744;15.242;2023-03-19T05:13:09;30;29;
70554;PMS5003;58104;52.744;15.242;2023-03-19T05:15:34;31;29;
70554;PMS5003;58104;52.744;15.242;2023-03-19T05:18:00;30;30;
70554;PMS5003;58104;52.744;15.242;2023-03-19T05:20:25;38;31;
70554;PMS5003;58104;52.744;15.242;2023-03-19T05:22:51;25;25;
70554;PMS5003;58104;52.744;15.242;2023-03-19T05:25:17;30;27;
70554;PMS5003;58104;52.744;15.242;2023-03-19T05:27:42;26;23;
70554;PMS5003;58104;52.744;15.242;2023-03-19T05:30:07;34;29;
70554;PMS5003;58104;52.744;15.242;2023-03-19T05:32:32;28;27;
70554;PMS5003;58104;52.744;15.242;2023-03-19T05:34:58;35;31;
70554;PMS5003;58104;52.744;15.242;2023-03-19T05:37:24;27;25;
70554;PMS5003;58104;52.744;15.242;2023-03-19T05:39:49;29;25;
70554;PMS5003;58104;52.744;15.242;2023-03-19T05:42:14;32;32;
70554;PMS5003;58104;52.744;15.242;2023-03-19T05:44:40;35;34;
70554;PMS5003;58104;52.744;15.242;2023-03-19T05:47:06;36;30;
70554;PMS5003;58104;52.744;15.242;2023-03-19T05:49:30;28;28;
70554;PMS5003;58104;52.744;15.242;2023-03-19T05:51:56;26;25;
70554;PMS5003;58104;52.744;15.242;2023-03-19T05:54:22;29;28;
70554;PMS5003;58104;52.744;15.242;2023-03-19T05:56:47;30;28;
70554;PMS5003;58104;52.744;15.242;2023-03-19T05:59:13;30;29;
70554;PMS5003;58104;52.744;15.242;2023-03-19T06:01:39;30;27;
70554;PMS5003;58104;52.744;15.242;2023-03-19T06:04:05;27;23;
70554;PMS5003;58104;52.744;15.242;2023-03-19T06:06:30;27;26;
70554;PMS5003;58104;52.744;15.242;2023-03-19T06:08:55;26;26;
70554;PMS5003;58104;52.744;15.242;2023-03-19T06:11:20;31;23;
70554;PMS5003;58104;52.744;15.242;2023-03-19T06:13:45;29;26;
70554;PMS5003;58104;52.744;15.242;2023-03-19T06:16:11;31;30;
70554;PMS5003;58104;52.744;15.242;2023-03-19T06:18:36;43;42;
70554;PMS5003;58104;52.744;15.242;2023-03-19T06:21:02;48;44;
70554;PMS5003;58104;52.744;15.242;2023-03-19T06:23:27;51;47;
70554;PMS5003;58104;52.744;15.242;2023-03-19T06:25:53;44;42;
70554;PMS5003;58104;52.744;15.242;2023-03-19T06:28:19;46;43;
70554;PMS5003;58104;52.744;15.242;2023-03-19T06:30:44;50;47;
70554;PMS5003;58104;52.744;15.242;2023-03-19T06:33:09;40;40;
70554;PMS5003;58104;52.744;15.242;2023-03-19T06:35:35;46;45;
70554;PMS5003;58104;52.744;15.242;2023-03-19T06:38:01;55;47;
70554;PMS5003;58104;52.744;15.242;2023-03-19T06:40:26;48;43;
70554;PMS5003;58104;52.744;15.242;2023-03-19T06:42:51;47;44;
70554;PMS5003;58104;52.744;15.242;2023-03-19T06:45:16;58;48;
70554;PMS5003;58104;52.744;15.242;2023-03-19T06:47:42;47;44;
70554;PMS5003;58104;52.744;15.242;2023-03-19T06:50:08;55;49;
70554;PMS5003;58104;52.744;15.242;2023-03-19T06:52:32;51;46;
70554;PMS5003;58104;52.744;15.242;2023-03-19T06:54:58;48;47;
70554;PMS5003;58104;52.744;15.242;2023-03-19T06:57:24;55;49;
70554;PMS5003;58104;52.744;15.242;2023-03-19T06:59:49;52;49;
70554;PMS5003;58104;52.744;15.242;2023-03-19T07:02:15;53;47;
70554;PMS5003;58104;52.744;15.242;2023-03-19T07:04:40;56;49;
70554;PMS5003;58104;52.744;15.242;2023-03-19T07:07:06;53;48;
70554;PMS5003;58104;52.744;15.242;2023-03-19T07:09:31;53;51;
70554;PMS5003;58104;52.744;15.242;2023-03-19T07:11:57;59;51;
70554;PMS5003;58104;52.744;15.242;2023-03-19T07:14:23;54;49;
70554;PMS5003;58104;52.744;15.242;2023-03-19T07:16:48;47;47;
70554;PMS5003;58104;52.744;15.242;2023-03-19T07:19:13;51;46;
70554;PMS5003;58104;52.744;15.242;2023-03-19T07:21:38;48;47;
70554;PMS5003;58104;52.744;15.242;2023-03-19T07:24:04;51;47;
70554;PMS5003;58104;52.744;15.242;2023-03-19T07:26:29;54;49;
70554;PMS5003;58104;52.744;15.242;2023-03-19T07:28:55;47;44;
70554;PMS5003;58104;52.744;15.242;2023-03-19T07:31:20;60;54;
70554;PMS5003;58104;52.744;15.242;2023-03-19T07:33:45;50;48;
70554;PMS5003;58104;52.744;15.242;2023-03-19T07:36:11;59;52;
70554;PMS5003;58104;52.744;15.242;2023-03-19T07:38:36;53;52;
70554;PMS5003;58104;52.744;15.242;2023-03-19T07:41:02;50;47;
70554;PMS5003;58104;52.744;15.242;2023-03-19T07:43:28;54;51;
70554;PMS5003;58104;52.744;15.242;2023-03-19T07:45:53;58;52;
70554;PMS5003;58104;52.744;15.242;2023-03-19T07:48:18;62;55;
70554;PMS5003;58104;52.744;15.242;2023-03-19T07:50:44;59;54;
70554;PMS5003;58104;52.744;15.242;2023-03-19T07:53:10;58;55;
70554;PMS5003;58104;52.744;15.242;2023-03-19T07:55:35;63;57;
70554;PMS5003;58104;52.744;15.242;2023-03-19T07:58:00;64;54;
70554;PMS5003;58104;52.744;15.242;2023-03-19T08:00:26;64;58;
70554;PMS5003;58104;52.744;15.242;2023-03-19T08:02:51;60;54;
70554;PMS5003;58104;52.744;15.242;2023-03-19T08:05:17;57;56;
70554;PMS5003;58104;52.744;15.242;2023-03-19T08:07:43;55;52;
70554;PMS5003;58104;52.744;15.242;2023-03-19T08:10:09;60;55;
70554;PMS5003;58104;52.744;15.242;2023-03-19T08:12:33;61;59;
70554;PMS5003;58104;52.744;15.242;2023-03-19T08:14:59;58;52;
70554;PMS5003;58104;52.744;15.242;2023-03-19T08:17:25;61;54;
70554;PMS5003;58104;52.744;15.242;2023-03-19T08:19:50;58;54;
70554;PMS5003;58104;52.744;15.242;2023-03-19T08:22:16;56;48;
70554;PMS5003;58104;52.744;15.242;2023-03-19T08:24:41;52;49;
70554;PMS5003;58104;52.744;15.242;2023-03-19T08:27:07;53;50;
70554;PMS5003;58104;52.744;15.242;2023-03-19T08:29:32;54;49;
70554;PMS5003;58104;52.744;15.242;2023-03-19T08:31:58;58;51;
70554;PMS5003;58104;52.744;15.242;2023-03-19T08:34:23;46;43;
70554;PMS5003;58104;52.744;15.242;2023-03-19T08:36:49;54;50;
70554;PMS5003;58104;52.744;15.242;2023-03-19T08:39:14;51;44;
70554;PMS5003;58104;52.744;15.242;2023-03-19T08:41:39;58;53;
70554;PMS5003;58104;52.744;15.242;2023-03-19T08:44:05;55;51;
70554;PMS5003;58104;52.744;15.242;2023-03-19T08:46:30;52;48;
70554;PMS5003;58104;52.744;15.242;2023-03-19T08:48:56;49;47;
70554;PMS5003;58104;52.744;15.242;2023-03-19T08:51:21;48;45;
70554;PMS5003;58104;52.744;15.242;2023-03-19T08:53:46;51;43;
70554;PMS5003;58104;52.744;15.242;2023-03-19T08:56:12;49;45;
70554;PMS5003;58104;52.744;15.242;2023-03-19T08:58:37;46;42;
70554;PMS5003;58104;52.744;15.242;2023-03-19T09:01:03;51;47;
70554;PMS5003;58104;52.744;15.242;2023-03-19T09:03:28;60;53;
70554;PMS5003;58104;52.744;15.242;2023-03-19T09:05:56;53;47;
70554;PMS5003;58104;52.744;15.242;2023-03-19T09:08:19;45;44;
70554;PMS5003;58104;52.744;15.242;2023-03-19T09:10:44;49;45;
70554;PMS5003;58104;52.744;15.242;2023-03-19T09:13:10;45;44;
70554;PMS5003;58104;52.744;15.242;2023-03-19T09:15:35;46;44;
70554;PMS5003;58104;52.744;15.242;2023-03-19T09:18:01;49;45;
70554;PMS5003;58104;52.744;15.242;2023-03-19T09:20:27;57;49;
70554;PMS5003;58104;52.744;15.242;2023-03-19T09:22:52;45;43;
70554;PMS5003;58104;52.744;15.242;2023-03-19T09:25:17;50;46;
70554;PMS5003;58104;52.744;15.242;2023-03-19T09:27:43;50;47;
70554;PMS5003;58104;52.744;15.242;2023-03-19T09:30:09;49;44;
70554;PMS5003;58104;52.744;15.242;2023-03-19T09:32:34;48;45;
70554;PMS5003;58104;52.744;15.242;2023-03-19T09:34:59;46;40;
70554;PMS5003;58104;52.744;15.242;2023-03-19T09:37:24;39;36;
70554;PMS5003;58104;52.744;15.242;2023-03-19T09:39:49;43;40;
70554;PMS5003;58104;52.744;15.242;2023-03-19T09:42:18;47;45;
70554;PMS5003;58104;52.744;15.242;2023-03-19T09:44:40;46;42;
70554;PMS5003;58104;52.744;15.242;2023-03-19T09:47:09;48;46;
70554;PMS5003;58104;52.744;15.242;2023-03-19T09:49:31;44;44;
70554;PMS5003;58104;52.744;15.242;2023-03-19T09:51:57;41;40;
70554;PMS5003;58104;52.744;15.242;2023-03-19T09:54:27;37;37;
70554;PMS5003;58104;52.744;15.242;2023-03-19T09:56:48;47;41;
70554;PMS5003;58104;52.744;15.242;2023-03-19T09:59:13;33;33;
70554;PMS5003;58104;52.744;15.242;2023-03-19T10:01:38;43;43;
70554;PMS5003;58104;52.744;15.242;2023-03-19T10:04:10;46;41;
70554;PMS5003;58104;52.744;15.242;2023-03-19T10:06:30;41;39;
70554;PMS5003;58104;52.744;15.242;2023-03-19T10:08:58;44;43;
70554;PMS5003;58104;52.744;15.242;2023-03-19T10:11:24;39;36;
70554;PMS5003;58104;52.744;15.242;2023-03-19T10:13:50;46;43;
70554;PMS5003;58104;52.744;15.242;2023-03-19T10:16:12;40;37;
70554;PMS5003;58104;52.744;15.242;2023-03-19T10:18:46;41;40;
70554;PMS5003;58104;52.744;15.242;2023-03-19T10:21:03;39;38;
70554;PMS5003;58104;52.744;15.242;2023-03-19T10:23:30;42;38;
70554;PMS5003;58104;52.744;15.242;2023-03-19T10:25:54;35;34;
70554;PMS5003;58104;52.744;15.242;2023-03-19T10:28:19;41;36;
70554;PMS5003;58104;52.744;15.242;2023-03-19T10:30:46;45;39;
70554;PMS5003;58104;52.744;15.242;2023-03-19T10:33:13;32;32;
70554;PMS5003;58104;52.744;15.242;2023-03-19T10:35:36;42;38;
70554;PMS5003;58104;52.744;15.242;2023-03-19T10:40:29;46;43;
70554;PMS5003;58104;52.744;15.242;2023-03-19T10:42:54;43;40;
70554;PMS5003;58104;52.744;15.242;2023-03-19T10:45:18;35;34;
70554;PMS5003;58104;52.744;15.242;2023-03-19T10:47:42;35;33;
70554;PMS5003;58104;52.744;15.242;2023-03-19T10:50:09;43;39;
70554;PMS5003;58104;52.744;15.242;2023-03-19T10:52:33;51;46;
70554;PMS5003;58104;52.744;15.242;2023-03-19T10:55:01;48;42;
70554;PMS5003;58104;52.744;15.242;2023-03-19T10:57:25;48;46;
70554;PMS5003;58104;52.744;15.242;2023-03-19T10:59:50;46;46;
70554;PMS5003;58104;52.744;15.242;2023-03-19T11:02:16;43;41;
70554;PMS5003;58104;52.744;15.242;2023-03-19T11:04:41;49;45;
70554;PMS5003;58104;52.744;15.242;2023-03-19T11:07:08;51;47;
70554;PMS5003;58104;52.744;15.242;2023-03-19T11:09:32;43;34;
70554;PMS5003;58104;52.744;15.242;2023-03-19T11:11:57;46;45;
70554;PMS5003;58104;52.744;15.242;2023-03-19T11:14:24;56;51;
70554;PMS5003;58104;52.744;15.242;2023-03-19T11:16:50;30;28;
70554;PMS5003;58104;52.744;15.242;2023-03-19T11:19:15;10;9;
70554;PMS5003;58104;52.744;15.242;2023-03-19T11:21:38;5;5;
70554;PMS5003;58104;52.744;15.242;2023-03-19T11:24:03;6;6;
70554;PMS5003;58104;52.744;15.242;2023-03-19T11:26:28;8;8;
70554;PMS5003;58104;52.744;15.242;2023-03-19T11:28:54;4;4;
70554;PMS5003;58104;52.744;15.242;2023-03-19T11:31:21;8;8;
70554;PMS5003;58104;52.744;15.242;2023-03-19T11:33:46;17;17;
70554;PMS5003;58104;52.744;15.242;2023-03-19T11:36:11;24;24;
70554;PMS5003;58104;52.744;15.242;2023-03-19T11:38:38;15;12;
70554;PMS5003;58104;52.744;15.242;2023-03-19T11:41:02;18;17;
70554;PMS5003;58104;52.744;15.242;2023-03-19T11:43:32;17;17;
70554;PMS5003;58104;52.744;15.242;2023-03-19T11:45:54;18;18;
70554;PMS5003;58104;52.744;15.242;2023-03-19T11:48:20;23;21;
70554;PMS5003;58104;52.744;15.242;2023-03-19T11:50:44;34;33;
70554;PMS5003;58104;52.744;15.242;2023-03-19T11:53:12;27;25;
70554;PMS5003;58104;52.744;15.242;2023-03-19T11:55:35;18;17;
70554;PMS5003;58104;52.744;15.242;2023-03-19T11:58:03;26;26;
70554;PMS5003;58104;52.744;15.242;2023-03-19T12:00:27;15;15;
70554;PMS5003;58104;52.744;15.242;2023-03-19T12:02:58;42;38;
70554;PMS5003;58104;52.744;15.242;2023-03-19T12:05:17;13;13;
70554;PMS5003;58104;52.744;15.242;2023-03-19T12:07:43;21;18;
70554;PMS5003;58104;52.744;15.242;2023-03-19T12:12:32;8;8;
70554;PMS5003;58104;52.744;15.242;2023-03-19T12:15:01;11;11;
70554;PMS5003;58104;52.744;15.242;2023-03-19T12:17:27;27;24;
70554;PMS5003;58104;52.744;15.242;2023-03-19T12:22:16;24;23;
70554;PMS5003;58104;52.744;15.242;2023-03-19T12:24:43;10;10;
70554;PMS5003;58104;52.744;15.242;2023-03-19T12:27:07;12;11;
70554;PMS5003;58104;52.744;15.242;2023-03-19T12:29:31;33;32;
70554;PMS5003;58104;52.744;15.242;2023-03-19T12:32:01;17;17;
70554;PMS5003;58104;52.744;15.242;2023-03-19T12:34:24;30;30;
70554;PMS5003;58104;52.744;15.242;2023-03-19T12:36:48;25;25;
70554;PMS5003;58104;52.744;15.242;2023-03-19T12:39:12;43;38;
70554;PMS5003;58104;52.744;15.242;2023-03-19T12:41:38;44;44;
70554;PMS5003;58104;52.744;15.242;2023-03-19T12:44:03;39;36;
70554;PMS5003;58104;52.744;15.242;2023-03-19T12:46:29;41;38;
70554;PMS5003;58104;52.744;15.242;2023-03-19T12:48:55;39;37;
70554;PMS5003;58104;52.744;15.242;2023-03-19T12:51:20;46;43;
70554;PMS5003;58104;52.744;15.242;2023-03-19T12:53:46;49;47;
70554;PMS5003;58104;52.744;15.242;2023-03-19T12:56:12;46;43;
70554;PMS5003;58104;52.744;15.242;2023-03-19T12:58:38;39;39;
70554;PMS5003;58104;52.744;15.242;2023-03-19T13:01:02;41;38;
70554;PMS5003;58104;52.744;15.242;2023-03-19T13:03:28;59;51;
70554;PMS5003;58104;52.744;15.242;2023-03-19T13:05:55;47;44;
70554;PMS5003;58104;52.744;15.242;2023-03-19T13:08:18;41;38;
70554;PMS5003;58104;52.744;15.242;2023-03-19T13:10:43;51;49;
70554;PMS5003;58104;52.744;15.242;2023-03-19T13:13:14;46;41;
70554;PMS5003;58104;52.744;15.242;2023-03-19T13:15:35;49;46;
70554;PMS5003;58104;52.744;15.242;2023-03-19T13:18:03;43;40;
70554;PMS5003;58104;52.744;15.242;2023-03-19T13:20:27;36;33;
70554;PMS5003;58104;52.744;15.242;2023-03-19T13:22:52;51;44;
70554;PMS5003;58104;52.744;15.242;2023-03-19T13:25:16;46;42;
70554;PMS5003;58104;52.744;15.242;2023-03-19T13:27:42;46;42;
70554;PMS5003;58104;52.744;15.242;2023-03-19T13:32:35;46;44;
70554;PMS5003;58104;52.744;15.242;2023-03-19T13:37:24;55;49;
70554;PMS5003;58104;52.744;15.242;2023-03-19T13:39:49;49;43;
70554;PMS5003;58104;52.744;15.242;2023-03-19T13:44:41;44;42;
70554;PMS5003;58104;52.744;15.242;2023-03-19T13:49:32;42;41;
70554;PMS5003;58104;52.744;15.242;2023-03-19T13:51:57;49;45;
70554;PMS5003;58104;52.744;15.242;2023-03-19T14:01:39;49;42;
70554;PMS5003;58104;52.744;15.242;2023-03-19T14:04:03;45;44;
70554;PMS5003;58104;52.744;15.242;2023-03-19T14:06:30;46;43;
70554;PMS5003;58104;52.744;15.242;2023-03-19T14:08:54;40;37;
70554;PMS5003;58104;52.744;15.242;2023-03-19T14:11:21;49;44;
70554;PMS5003;58104;52.744;15.242;2023-03-19T14:13:46;50;44;
70554;PMS5003;58104;52.744;15.242;2023-03-19T14:16:14;50;46;
70554;PMS5003;58104;52.744;15.242;2023-03-19T14:18:38;51;46;
70554;PMS5003;58104;52.744;15.242;2023-03-19T14:21:03;46;44;
70554;PMS5003;58104;52.744;15.242;2023-03-19T14:23:27;61;55;
70554;PMS5003;58104;52.744;15.242;2023-03-19T14:25:55;50;49;
70554;PMS5003;58104;52.744;15.242;2023-03-19T14:28:18;52;45;
70554;PMS5003;58104;52.744;15.242;2023-03-19T14:30:44;46;42;
70554;PMS5003;58104;52.744;15.242;2023-03-19T14:33:13;47;42;
70554;PMS5003;58104;52.744;15.242;2023-03-19T14:35:38;51;45;
70554;PMS5003;58104;52.744;15.242;2023-03-19T14:38:00;41;38;
70554;PMS5003;58104;52.744;15.242;2023-03-19T14:40:26;44;42;
70554;PMS5003;58104;52.744;15.242;2023-03-19T14:42:54;39;37;
70554;PMS5003;58104;52.744;15.242;2023-03-19T14:45:19;43;43;
70554;PMS5003;58104;52.744;15.242;2023-03-19T14:47:45;46;43;
70554;PMS5003;58104;52.744;15.242;2023-03-19T14:52:31;41;40;
70554;PMS5003;58104;52.744;15.242;2023-03-19T14:54:57;44;43;
70554;PMS5003;58104;52.744;15.242;2023-03-19T14:57:25;41;40;
70554;PMS5003;58104;52.744;15.242;2023-03-19T14:59:48;52;46;
70554;PMS5003;58104;52.744;15.242;2023-03-19T15:02:18;44;38;
70554;PMS5003;58104;52.744;15.242;2023-03-19T15:04:39;41;38;
70554;PMS5003;58104;52.744;15.242;2023-03-19T15:07:04;47;41;
70554;PMS5003;58104;52.744;15.242;2023-03-19T15:09:30;43;42;
70554;PMS5003;58104;52.744;15.242;2023-03-19T15:11:59;41;37;
70554;PMS5003;58104;52.744;15.242;2023-03-19T15:14:24;41;38;
70554;PMS5003;58104;52.744;15.242;2023-03-19T15:16:46;49;42;
70554;PMS5003;58104;52.744;15.242;2023-03-19T15:19:12;41;40;
70554;PMS5003;58104;52.744;15.242;2023-03-19T15:21:37;46;40;
70554;PMS5003;58104;52.744;15.242;2023-03-19T15:24:04;37;37;
70554;PMS5003;58104;52.744;15.242;2023-03-19T15:26:28;38;35;
70554;PMS5003;58104;52.744;15.242;2023-03-19T15:28:53;40;37;
70554;PMS5003;58104;52.744;15.242;2023-03-19T15:31:18;48;43;
70554;PMS5003;58104;52.744;15.242;2023-03-19T15:33:44;44;43;
70554;PMS5003;58104;52.744;15.242;2023-03-19T15:36:10;46;44;
70554;PMS5003;58104;52.744;15.242;2023-03-19T15:38:34;46;44;
70554;PMS5003;58104;52.744;15.242;2023-03-19T15:41:00;50;47;
70554;PMS5003;58104;52.744;15.242;2023-03-19T15:43:24;50;46;
70554;PMS5003;58104;52.744;15.242;2023-03-19T15:45:51;50;44;
70554;PMS5003;58104;52.744;15.242;2023-03-19T15:48:17;56;52;
70554;PMS5003;58104;52.744;15.242;2023-03-19T15:50:41;48;44;
70554;PMS5003;58104;52.744;15.242;2023-03-19T15:53:07;50;45;
70554;PMS5003;58104;52.744;15.242;2023-03-19T15:55:32;53;48;
70554;PMS5003;58104;52.744;15.242;2023-03-19T15:58:01;52;50;
70554;PMS5003;58104;52.744;15.242;2023-03-19T16:00:23;45;45;
70554;PMS5003;58104;52.744;15.242;2023-03-19T16:02:49;52;42;
70554;PMS5003;58104;52.744;15.242;2023-03-19T16:05:21;53;47;
70554;PMS5003;58104;52.744;15.242;2023-03-19T16:07:40;51;48;
70554;PMS5003;58104;52.744;15.242;2023-03-19T16:12:34;53;50;
70554;PMS5003;58104;52.744;15.242;2023-03-19T16:14:55;51;46;
70554;PMS5003;58104;52.744;15.242;2023-03-19T16:17:24;54;48;